KTUS/TUS METAR and TAF weather

Enter ICAO airport designator
Station Type Date Time Source
KTUS METAR 2021/09/23 23:53 UTC NOAA

KTUS 232353Z 12011KT 10SM CLR 28/08 A2998 RMK AO2 SLP107 60000 T02830078 10294 20211 56024


Station Type Date Time Source
KTUS Decoded METAR 2021/09/23 23:53 UTC NOAA

TUCSON INTERNATIONAL AIRPORT , AZ, United States (KTUS) 32-08N 110-57W 786M
Sep 23, 2021 - 07:53 PM EDT / 2021.09.23 2353 UTC
Wind: from the ESE (120 degrees) at 13 MPH (11 KT):0
Visibility: 10 mile(s):0
Sky conditions: clear
Temperature: 82.9 F (28.3 C)
Dew Point: 46.0 F (7.8 C)
Relative Humidity: 27%
Pressure (altimeter): 29.98 in. Hg (1015 hPa)
Pressure tendency: 0.07 inches (2.4 hPa) lower than three hours ago
ob: KTUS 232353Z 12011KT 10SM CLR 28/08 A2998 RMK AO2 SLP107 60000 T02830078 10294 20211 56024
cycle: 0

Station Type Date Time Source
KTUS TAF 2021/09/23 18:28 UTC NOAA

TAF KTUS 231725Z 2318/2418 19012G22KT P6SM VCTS SCT060CB BKN090
TEMPO 2318/2319 VRB25G35KT -TSRA BKN060CB
FM232300 17007KT P6SM BKN100
FM240400 14008KT P6SM VCSH BKN110 BKN180

Example: see airport list